createdAt,value
2019-04-04T00:00:30.053Z,52.93
2019-04-04T00:02:58.585Z,52.67
2019-04-04T00:05:27.070Z,52.87
2019-04-04T00:07:55.494Z,52.47
2019-04-04T00:10:23.957Z,52.90
2019-04-04T00:12:52.469Z,51.70
2019-04-04T00:15:20.921Z,52.57
2019-04-04T00:17:49.385Z,51.80
2019-04-04T00:20:17.939Z,50.50
2019-04-04T00:22:46.473Z,50.20
2019-04-04T00:25:15.010Z,49.10
2019-04-04T00:27:43.985Z,50.07
2019-04-04T00:30:13.623Z,46.83
2019-04-04T00:32:42.134Z,48.10
2019-04-04T00:35:10.646Z,45.13
2019-04-04T00:37:41.044Z,45.57
2019-04-04T00:40:11.631Z,44.57
2019-04-04T00:42:39.762Z,45.77
2019-04-04T00:45:08.375Z,44.00
2019-04-04T00:47:36.950Z,45.27
2019-04-04T00:50:07.213Z,44.30
2019-04-04T00:52:35.742Z,43.67
2019-04-04T00:55:06.332Z,43.63
2019-04-04T00:57:34.819Z,44.83
2019-04-04T01:00:03.797Z,47.80
2019-04-04T01:02:32.246Z,43.07
2019-04-04T01:05:01.575Z,43.70
2019-04-04T01:07:30.836Z,44.97
2019-04-04T01:09:59.369Z,45.87
2019-04-04T01:12:27.943Z,45.27
2019-04-04T01:14:58.100Z,45.90
2019-04-04T01:17:26.741Z,46.53
2019-04-04T01:19:55.261Z,45.30
2019-04-04T01:22:26.689Z,41.83
2019-04-04T01:24:55.223Z,46.07
2019-04-04T01:27:23.698Z,43.63
2019-04-04T01:29:52.160Z,44.00
2019-04-04T01:32:20.729Z,45.63
2019-04-04T01:34:51.774Z,45.57
2019-04-04T01:37:19.555Z,46.43
2019-04-04T01:39:48.087Z,44.97
2019-04-04T01:42:16.639Z,45.73
2019-04-04T01:44:45.158Z,48.00
2019-04-04T01:47:14.946Z,45.03
2019-04-04T01:49:43.923Z,45.37
2019-04-04T01:52:12.485Z,45.00
2019-04-04T01:54:42.547Z,43.67
2019-04-04T01:57:11.002Z,47.80
2019-04-04T01:59:39.529Z,46.47
2019-04-04T02:02:08.011Z,46.20
2019-04-04T02:04:36.548Z,46.47
2019-04-04T02:07:05.073Z,45.67
2019-04-04T02:09:34.610Z,47.00
2019-04-04T02:12:03.249Z,48.37
2019-04-04T02:14:31.713Z,49.47
2019-04-04T02:17:00.237Z,46.50
2019-04-04T02:19:28.710Z,50.80
2019-04-04T02:21:57.848Z,47.67
2019-04-04T02:24:27.414Z,48.23
2019-04-04T02:26:55.894Z,48.47
2019-04-04T02:29:24.490Z,49.10
2019-04-04T02:31:54.740Z,51.03
2019-04-04T02:34:23.289Z,50.77
2019-04-04T02:36:51.810Z,51.67
2019-04-04T02:39:20.805Z,48.80
2019-04-04T02:41:49.417Z,49.60
2019-04-04T02:44:18.179Z,50.50
2019-04-04T02:46:46.651Z,48.47
2019-04-04T02:49:15.312Z,49.20
2019-04-04T02:51:43.869Z,49.80
2019-04-04T02:54:12.488Z,49.10
2019-04-04T02:56:41.128Z,47.70
2019-04-04T02:59:09.681Z,49.97
2019-04-04T03:01:38.240Z,49.17
2019-04-04T03:04:06.788Z,50.50
2019-04-04T03:06:35.357Z,50.67
2019-04-04T03:09:09.035Z,48.93
2019-04-04T03:11:35.889Z,50.37
2019-04-04T03:14:04.849Z,49.43
2019-04-04T03:16:33.561Z,51.10
2019-04-04T03:19:02.313Z,54.27
2019-04-04T03:21:30.823Z,52.63
2019-04-04T03:23:59.320Z,52.83
2019-04-04T03:26:27.835Z,51.70
2019-04-04T03:28:56.378Z,52.90
2019-04-04T03:31:24.952Z,49.70
2019-04-04T03:33:53.603Z,53.53
2019-04-04T03:36:22.099Z,52.97
2019-04-04T03:38:50.920Z,54.90
2019-04-04T03:41:19.365Z,54.47
2019-04-04T03:43:49.002Z,54.30
2019-04-04T03:46:17.792Z,54.43
2019-04-04T03:48:49.829Z,55.93
2019-04-04T03:51:16.566Z,56.40
2019-04-04T03:53:52.699Z,56.83
2019-04-04T03:56:21.240Z,56.03
2019-04-04T03:58:49.728Z,57.27
2019-04-04T04:01:18.212Z,57.30
2019-04-04T04:03:46.706Z,54.77
2019-04-04T04:06:15.306Z,53.50
2019-04-04T04:08:43.962Z,57.97
2019-04-04T04:11:12.517Z,55.80
2019-04-04T04:13:40.983Z,56.50
2019-04-04T04:16:09.547Z,57.97
2019-04-04T04:18:38.190Z,58.37
2019-04-04T04:21:09.750Z,60.17
2019-04-04T04:23:36.867Z,58.57
2019-04-04T04:26:08.195Z,58.07
2019-04-04T04:28:35.602Z,64.97
2019-04-04T04:31:04.078Z,61.00
2019-04-04T04:33:32.547Z,59.67
2019-04-04T04:36:01.119Z,59.07
2019-04-04T04:38:29.589Z,59.07
2019-04-04T04:40:58.066Z,58.40
2019-04-04T04:43:26.607Z,59.80
2019-04-04T04:45:55.073Z,62.20
2019-04-04T04:48:25.942Z,64.00
2019-04-04T04:50:53.788Z,63.50
2019-04-04T04:53:22.344Z,58.90
2019-04-04T04:55:50.868Z,58.63
2019-04-04T04:58:19.466Z,59.87
2019-04-04T05:00:49.592Z,55.83
2019-04-04T05:03:18.179Z,56.33
2019-04-04T05:05:46.695Z,55.67
2019-04-04T05:08:15.303Z,56.27
2019-04-04T05:10:45.683Z,55.63
2019-04-04T05:13:14.016Z,58.20
2019-04-04T05:15:42.475Z,57.20
2019-04-04T05:18:12.020Z,54.63
2019-04-04T05:20:40.790Z,56.73
2019-04-04T05:23:11.086Z,58.27
2019-04-04T05:25:50.573Z,55.63
2019-04-04T05:28:10.808Z,54.30
2019-04-04T05:30:39.933Z,52.17
2019-04-04T05:33:08.473Z,54.20
2019-04-04T05:35:37.834Z,50.30
2019-04-04T05:38:07.867Z,53.33
2019-04-04T05:40:37.136Z,53.87
2019-04-04T05:43:05.647Z,50.73
2019-04-04T05:45:34.305Z,52.30
2019-04-04T05:48:02.839Z,51.60
2019-04-04T05:50:31.668Z,53.07
2019-04-04T05:53:00.215Z,54.57
2019-04-04T05:55:28.768Z,53.50
2019-04-04T05:57:57.282Z,51.23
2019-04-04T06:00:27.285Z,53.30
2019-04-04T06:02:56.117Z,53.50
2019-04-04T06:05:26.896Z,53.60
2019-04-04T06:07:54.765Z,53.67
2019-04-04T06:10:23.281Z,54.20
2019-04-04T06:12:54.337Z,61.20
2019-04-04T06:15:21.984Z,52.13
2019-04-04T06:17:50.505Z,52.97
2019-04-04T06:20:19.123Z,54.63
2019-04-04T06:22:47.666Z,52.37
2019-04-04T06:25:16.239Z,50.63
2019-04-04T06:27:44.802Z,51.20
2019-04-04T06:30:13.353Z,48.57
2019-04-04T06:32:41.819Z,52.87
2019-04-04T06:35:10.360Z,50.60
2019-04-04T06:37:39.042Z,50.27
2019-04-04T06:40:07.898Z,49.27
2019-04-04T06:42:37.146Z,51.77
2019-04-04T06:45:07.168Z,50.67
2019-04-04T06:47:35.726Z,50.83
2019-04-04T06:50:07.401Z,47.53
2019-04-04T06:52:35.324Z,51.83
2019-04-04T06:55:05.016Z,54.13
2019-04-04T06:57:34.190Z,47.67
2019-04-04T07:00:05.989Z,48.87
2019-04-04T07:02:34.475Z,50.90
2019-04-04T07:05:06.995Z,49.37
2019-04-04T07:07:35.731Z,49.43
2019-04-04T07:10:06.040Z,46.63
2019-04-04T07:12:37.780Z,45.37
2019-04-04T07:15:11.211Z,46.63
2019-04-04T07:17:40.382Z,45.33
2019-04-04T07:20:08.692Z,46.63
2019-04-04T07:22:37.253Z,43.80
2019-04-04T07:25:09.101Z,45.33
2019-04-04T07:27:39.259Z,45.33
2019-04-04T07:30:15.179Z,42.37
2019-04-04T07:32:42.395Z,45.27
2019-04-04T07:35:11.190Z,46.63
2019-04-04T07:37:39.675Z,39.90
2019-04-04T07:40:09.348Z,42.30
2019-04-04T07:42:40.181Z,40.70
2019-04-04T07:45:08.607Z,41.43
2019-04-04T07:47:37.118Z,45.10
2019-04-04T07:50:06.636Z,42.60
2019-04-04T07:52:35.191Z,41.67
2019-04-04T07:55:04.056Z,45.43
2019-04-04T07:57:32.570Z,43.33
2019-04-04T08:00:01.050Z,43.80
2019-04-04T08:02:29.796Z,44.47
2019-04-04T08:05:00.117Z,41.53
2019-04-04T08:07:28.580Z,43.03
2019-04-04T08:09:57.597Z,43.47
2019-04-04T08:12:26.132Z,45.73
2019-04-04T08:14:54.883Z,42.93
2019-04-04T08:17:23.365Z,42.47
2019-04-04T08:19:59.472Z,44.23
2019-04-04T08:22:22.185Z,45.17
2019-04-04T08:24:50.796Z,42.23
2019-04-04T08:27:19.298Z,42.20
2019-04-04T08:29:47.767Z,42.63
2019-04-04T08:32:16.246Z,43.67
2019-04-04T08:34:44.765Z,40.07
2019-04-04T08:37:13.296Z,42.07
2019-04-04T08:39:41.734Z,41.67
2019-04-04T08:42:10.313Z,40.17
2019-04-04T08:44:38.855Z,39.83
2019-04-04T08:47:07.442Z,38.97
2019-04-04T08:49:35.901Z,38.73
2019-04-04T08:52:16.030Z,39.07
2019-04-04T08:54:34.642Z,36.87
2019-04-04T08:57:03.196Z,37.77
2019-04-04T08:59:31.670Z,38.03
2019-04-04T09:02:00.166Z,37.63
2019-04-04T09:04:28.689Z,37.00
2019-04-04T09:06:57.298Z,38.40
2019-04-04T09:09:25.842Z,39.23
2019-04-04T09:11:54.421Z,41.20
2019-04-04T09:14:22.932Z,40.87
2019-04-04T09:16:51.674Z,45.87
2019-04-04T09:19:20.278Z,46.27
2019-04-04T09:21:48.756Z,47.67
2019-04-04T09:24:17.232Z,47.27
2019-04-04T09:26:45.678Z,48.03
2019-04-04T09:29:14.169Z,48.87
2019-04-04T09:31:42.701Z,47.90
2019-04-04T09:34:11.284Z,47.93
2019-04-04T09:36:39.861Z,45.53
2019-04-04T09:39:08.332Z,45.27
2019-04-04T09:41:36.915Z,48.80
2019-04-04T09:44:06.197Z,45.17
2019-04-04T09:46:35.011Z,43.87
2019-04-04T09:49:03.722Z,43.83
2019-04-04T09:51:32.324Z,45.30
2019-04-04T09:54:00.862Z,45.03
2019-04-04T09:56:29.428Z,44.60
2019-04-04T09:58:58.014Z,43.47
2019-04-04T10:01:28.101Z,44.90
2019-04-04T10:03:56.613Z,43.20
2019-04-04T10:06:26.108Z,43.37
2019-04-04T10:08:54.691Z,44.90
2019-04-04T10:11:23.203Z,43.63
2019-04-04T10:13:51.790Z,44.47
2019-04-04T10:16:20.459Z,45.07
2019-04-04T10:18:49.000Z,42.13
2019-04-04T10:21:17.524Z,41.80
2019-04-04T10:23:46.092Z,42.50
2019-04-04T10:26:14.691Z,43.20
2019-04-04T10:28:43.251Z,45.80
2019-04-04T10:31:12.099Z,44.30
2019-04-04T10:33:46.969Z,43.33
2019-04-04T10:36:15.631Z,46.80
2019-04-04T10:38:44.093Z,45.37
2019-04-04T10:41:12.721Z,43.97
2019-04-04T10:43:41.231Z,41.97
2019-04-04T10:46:09.768Z,45.47
2019-04-04T10:48:38.366Z,42.37
2019-04-04T10:51:06.846Z,41.70
2019-04-04T10:53:35.339Z,42.90
2019-04-04T10:56:03.874Z,42.03
2019-04-04T10:58:32.346Z,43.13
2019-04-04T11:01:01.079Z,42.23
2019-04-04T11:03:31.650Z,41.67
2019-04-04T11:06:00.283Z,40.57
2019-04-04T11:08:28.902Z,39.30
2019-04-04T11:10:58.961Z,40.90
2019-04-04T11:13:33.302Z,39.50
2019-04-04T11:15:57.825Z,40.10
2019-04-04T11:18:26.402Z,38.97
2019-04-04T11:20:54.962Z,38.80
2019-04-04T11:23:23.442Z,38.87
2019-04-04T11:25:51.904Z,37.20
2019-04-04T11:28:20.366Z,38.37
2019-04-04T11:30:48.984Z,37.17
2019-04-04T11:33:19.111Z,36.60
2019-04-04T11:35:47.718Z,38.33
2019-04-04T11:38:16.407Z,36.93
2019-04-04T11:40:44.862Z,38.93
2019-04-04T11:43:13.322Z,39.43
2019-04-04T11:45:41.827Z,38.10
2019-04-04T11:48:10.362Z,37.77
2019-04-04T11:50:39.934Z,37.87
2019-04-04T11:53:08.602Z,35.87
2019-04-04T11:55:37.075Z,38.00
2019-04-04T11:58:05.574Z,37.57
2019-04-04T12:00:35.706Z,37.77
2019-04-04T12:03:04.328Z,37.23
2019-04-04T12:05:32.963Z,38.67
2019-04-04T12:08:01.423Z,38.33
2019-04-04T12:10:29.883Z,40.27
2019-04-04T12:12:58.781Z,39.00
2019-04-04T12:15:27.341Z,39.40
2019-04-04T12:17:55.827Z,39.93
2019-04-04T12:20:24.381Z,38.90
2019-04-04T12:22:52.870Z,41.17
2019-04-04T12:25:21.318Z,40.67
2019-04-04T12:27:49.778Z,40.87
2019-04-04T12:30:20.574Z,40.20
2019-04-04T12:32:48.414Z,41.23
2019-04-04T12:35:16.889Z,40.20
2019-04-04T12:37:45.328Z,41.27
2019-04-04T12:40:20.474Z,40.27
2019-04-04T12:42:44.290Z,41.97
2019-04-04T12:45:12.962Z,40.63
2019-04-04T12:47:41.418Z,39.93
2019-04-04T12:50:10.343Z,38.67
2019-04-04T12:52:38.821Z,39.83
2019-04-04T12:55:07.735Z,39.33
2019-04-04T12:57:42.624Z,39.20
2019-04-04T13:00:11.617Z,41.07
2019-04-04T13:02:40.171Z,41.87
2019-04-04T13:05:28.017Z,41.37
2019-04-04T13:07:56.465Z,41.53
2019-04-04T13:10:32.934Z,41.10
2019-04-04T13:12:55.113Z,42.00
2019-04-04T13:15:23.769Z,40.80
2019-04-04T13:17:52.255Z,39.17
2019-04-04T13:20:21.084Z,41.07
2019-04-04T13:22:49.603Z,39.80
2019-04-04T13:25:18.147Z,38.37
2019-04-04T13:27:46.678Z,38.33
2019-04-04T13:30:15.588Z,41.07
2019-04-04T13:32:44.050Z,40.17
2019-04-04T13:35:12.908Z,43.80
2019-04-04T13:37:41.362Z,40.60
2019-04-04T13:40:10.075Z,40.53
2019-04-04T13:42:38.555Z,42.13
2019-04-04T13:45:07.679Z,40.43
2019-04-04T13:47:38.221Z,41.57
2019-04-04T13:50:08.152Z,41.23
2019-04-04T13:52:36.683Z,42.50
2019-04-04T13:55:06.275Z,43.43
2019-04-04T13:57:39.294Z,41.53
2019-04-04T14:00:09.380Z,42.20
2019-04-04T14:02:37.982Z,39.50
2019-04-04T14:05:10.803Z,43.70
2019-04-04T14:07:39.372Z,43.07
2019-04-04T14:10:08.082Z,43.43
2019-04-04T14:12:36.556Z,40.63
2019-04-04T14:15:09.673Z,42.73
2019-04-04T14:17:38.152Z,44.93
2019-04-04T14:20:09.153Z,44.03
2019-04-04T14:22:37.713Z,43.30
2019-04-04T14:25:07.173Z,42.10
2019-04-04T14:27:35.690Z,45.87
2019-04-04T14:30:06.869Z,42.80
2019-04-04T14:32:35.398Z,45.20
2019-04-04T14:35:05.697Z,43.47
2019-04-04T14:37:34.217Z,40.93
2019-04-04T14:40:03.115Z,41.27
2019-04-04T14:42:31.590Z,43.40
2019-04-04T14:45:02.251Z,43.57
2019-04-04T14:47:32.978Z,41.03
2019-04-04T14:50:00.686Z,42.13
2019-04-04T14:52:29.205Z,41.47
2019-04-04T14:54:57.725Z,44.00
2019-04-04T14:57:26.307Z,37.37
2019-04-04T14:59:54.810Z,36.80
2019-04-04T15:02:23.346Z,35.60
2019-04-04T15:04:51.903Z,34.53
2019-04-04T15:07:20.350Z,34.80
2019-04-04T15:09:54.930Z,34.30
2019-04-04T15:12:25.067Z,34.97
2019-04-04T15:17:29.954Z,36.67
2019-04-04T15:19:58.416Z,34.23
2019-04-04T15:22:27.241Z,34.10
2019-04-04T15:24:55.710Z,34.67
2019-04-04T15:27:24.178Z,34.37
2019-04-04T15:29:52.786Z,33.90
2019-04-04T15:32:21.339Z,34.10
2019-04-04T15:34:49.946Z,33.47
2019-04-04T15:37:18.409Z,35.03
2019-04-04T15:39:46.952Z,33.93
2019-04-04T15:42:15.470Z,32.17
2019-04-04T15:44:43.930Z,32.10
2019-04-04T15:47:12.454Z,32.27
2019-04-04T15:49:40.950Z,32.33
2019-04-04T15:52:09.418Z,30.20
2019-04-04T15:54:37.887Z,31.60
2019-04-04T15:57:06.347Z,31.83
2019-04-04T15:59:34.880Z,30.27
2019-04-04T16:02:03.333Z,31.07
2019-04-04T16:04:31.900Z,32.07
2019-04-04T16:07:00.353Z,29.97
2019-04-04T16:09:28.914Z,31.43
2019-04-04T16:11:57.506Z,32.23
2019-04-04T16:14:25.969Z,31.80
2019-04-04T16:16:54.433Z,31.87
2019-04-04T16:19:23.260Z,33.10
2019-04-04T16:21:51.722Z,30.30
2019-04-04T16:26:49.039Z,30.00
2019-04-04T16:29:17.489Z,34.50
2019-04-04T16:31:45.996Z,32.63
2019-04-04T16:34:14.510Z,39.80
2019-04-04T16:36:43.048Z,51.30
2019-04-04T16:39:11.541Z,49.83
2019-04-04T16:41:40.106Z,52.73
2019-04-04T16:44:08.614Z,51.73
2019-04-04T16:46:37.081Z,53.87
2019-04-04T16:49:05.550Z,53.27
2019-04-04T16:51:34.035Z,54.37
2019-04-04T16:54:02.613Z,55.17
2019-04-04T16:56:31.115Z,54.10
2019-04-04T16:58:59.649Z,51.50
2019-04-04T17:01:28.277Z,54.30
2019-04-04T17:04:01.786Z,52.83
2019-04-04T17:06:29.285Z,55.73
2019-04-04T17:12:14.828Z,55.17
2019-04-04T17:14:39.013Z,55.70
2019-04-04T17:17:07.685Z,55.97
2019-04-04T17:19:36.163Z,55.60
2019-04-04T17:22:04.730Z,54.27
2019-04-04T17:24:33.266Z,57.80
2019-04-04T17:27:01.835Z,55.60
2019-04-04T17:29:30.411Z,56.80
2019-04-04T17:31:59.435Z,58.60
2019-04-04T17:34:29.787Z,57.60
2019-04-04T17:36:58.829Z,57.40
2019-04-04T17:39:28.200Z,57.20
2019-04-04T17:41:56.934Z,54.37
2019-04-04T17:44:25.449Z,58.30
2019-04-04T17:46:54.069Z,54.63
2019-04-04T17:49:22.754Z,53.40
2019-04-04T17:51:51.408Z,53.67
2019-04-04T17:54:20.058Z,50.90
2019-04-04T17:56:49.073Z,51.73
2019-04-04T17:59:17.931Z,48.90
2019-04-04T18:01:46.514Z,54.60
2019-04-04T18:04:15.119Z,50.60
2019-04-04T18:06:43.590Z,47.73
2019-04-04T18:09:12.043Z,46.93
2019-04-04T18:11:40.531Z,44.00
2019-04-04T18:14:09.022Z,43.97
2019-04-04T18:16:37.567Z,45.90
2019-04-04T18:19:06.141Z,41.70
2019-04-04T18:21:34.668Z,41.13
2019-04-04T18:24:03.122Z,44.53
2019-04-04T18:26:31.631Z,52.27
2019-04-04T18:29:00.095Z,54.40
2019-04-04T18:31:28.598Z,58.53
2019-04-04T18:33:57.489Z,54.67
2019-04-04T18:36:26.458Z,59.47
2019-04-04T18:38:55.121Z,59.97
2019-04-04T18:41:23.668Z,57.67
2019-04-04T18:43:52.127Z,54.17
2019-04-04T18:46:20.613Z,53.33
2019-04-04T18:48:51.717Z,57.63
2019-04-04T18:51:20.254Z,61.60
2019-04-04T18:53:55.000Z,62.60
2019-04-04T18:56:18.999Z,64.43
2019-04-04T18:58:50.554Z,62.83
2019-04-04T19:01:19.102Z,61.97
2019-04-04T19:03:47.661Z,64.97
2019-04-04T19:06:16.142Z,63.13
2019-04-04T19:08:44.691Z,63.30
2019-04-04T19:11:21.711Z,64.43
2019-04-04T19:13:50.292Z,65.73
2019-04-04T19:16:18.822Z,63.90
2019-04-04T19:18:47.509Z,65.57
2019-04-04T19:21:16.579Z,64.80
2019-04-04T19:23:49.350Z,62.53
2019-04-04T19:26:15.400Z,69.07
2019-04-04T19:28:43.881Z,69.73
2019-04-04T19:31:12.653Z,68.97
2019-04-04T19:33:41.142Z,70.07
2019-04-04T19:36:09.623Z,69.30
2019-04-04T19:38:38.101Z,69.50
2019-04-04T19:41:07.100Z,70.37
2019-04-04T19:43:35.592Z,71.23
2019-04-04T19:46:04.327Z,69.43
2019-04-04T19:48:32.815Z,70.07
2019-04-04T19:51:01.807Z,73.30
2019-04-04T19:53:30.998Z,72.93
2019-04-04T19:56:02.684Z,75.47
2019-04-04T19:58:31.305Z,75.67
2019-04-04T20:01:00.258Z,73.37
2019-04-04T20:03:29.086Z,72.00
2019-04-04T20:05:57.882Z,71.63
2019-04-04T20:08:26.521Z,72.77
2019-04-04T20:10:55.022Z,73.63
2019-04-04T20:13:30.911Z,74.03
2019-04-04T20:18:27.423Z,72.27
2019-04-04T20:20:56.072Z,74.97
2019-04-04T20:23:24.737Z,71.77
2019-04-04T20:25:54.137Z,70.23
2019-04-04T20:28:23.116Z,73.47
2019-04-04T20:30:52.048Z,73.70
2019-04-04T20:33:21.322Z,72.93
2019-04-04T20:35:50.430Z,72.60
2019-04-04T20:38:19.026Z,71.90
2019-04-04T20:40:47.930Z,76.87
2019-04-04T20:43:18.100Z,75.20
2019-04-04T20:45:46.662Z,75.90
2019-04-04T20:48:15.146Z,75.77
2019-04-04T20:50:44.238Z,75.67
2019-04-04T20:53:12.765Z,76.90
2019-04-04T20:55:42.555Z,75.37
2019-04-04T20:58:11.114Z,78.27
2019-04-04T21:00:39.739Z,74.53
2019-04-04T21:03:08.266Z,76.87
2019-04-04T21:05:36.834Z,75.03
2019-04-04T21:08:06.569Z,73.37
2019-04-04T21:10:35.053Z,74.17
2019-04-04T21:13:03.595Z,75.20
2019-04-04T21:15:33.032Z,70.87
2019-04-04T21:18:01.611Z,69.23
2019-04-04T21:20:30.352Z,67.50
2019-04-04T21:22:58.850Z,68.07
2019-04-04T21:25:30.073Z,67.80
2019-04-04T21:27:58.799Z,63.03
2019-04-04T21:30:30.385Z,66.17
2019-04-04T21:32:58.898Z,64.97
2019-04-04T21:35:30.460Z,66.80
2019-04-04T21:37:59.097Z,64.73
2019-04-04T21:40:28.184Z,66.93
2019-04-04T21:42:58.390Z,65.67
2019-04-04T21:45:26.920Z,64.37
2019-04-04T21:47:56.313Z,62.50
2019-04-04T21:50:27.587Z,64.53
2019-04-04T21:52:57.325Z,63.70
2019-04-04T21:55:25.838Z,63.17
2019-04-04T21:57:54.316Z,61.90
2019-04-04T22:00:23.578Z,62.90
2019-04-04T22:02:52.183Z,60.67
2019-04-04T22:05:20.702Z,62.37
2019-04-04T22:07:49.230Z,58.27
2019-04-04T22:10:17.693Z,60.90
2019-04-04T22:12:46.226Z,60.40
2019-04-04T22:15:14.838Z,59.73
2019-04-04T22:17:43.454Z,62.00
2019-04-04T22:20:13.514Z,62.20
2019-04-04T22:22:41.996Z,60.07
2019-04-04T22:25:10.593Z,60.33
2019-04-04T22:27:39.034Z,59.87
2019-04-04T22:30:08.128Z,60.93
2019-04-04T22:32:38.679Z,58.77
2019-04-04T22:35:08.043Z,62.33
2019-04-04T22:37:36.600Z,59.90
2019-04-04T22:40:08.085Z,62.30
2019-04-04T22:42:37.009Z,58.13
2019-04-04T22:45:07.580Z,58.87
2019-04-04T22:47:36.115Z,59.07
2019-04-04T22:50:06.169Z,56.83
2019-04-04T22:52:34.630Z,59.33
2019-04-04T22:55:03.109Z,59.00
2019-04-04T22:57:31.613Z,58.67
2019-04-04T23:00:01.655Z,59.93
2019-04-04T23:02:31.650Z,58.77
2019-04-04T23:05:01.695Z,56.70
2019-04-04T23:07:33.264Z,58.20
2019-04-04T23:10:01.786Z,57.73
2019-04-04T23:12:30.388Z,58.03
2019-04-04T23:15:00.618Z,56.70
2019-04-04T23:17:30.707Z,58.23
2019-04-04T23:20:00.811Z,57.43
2019-04-04T23:22:30.980Z,56.83
2019-04-04T23:25:01.191Z,58.30
2019-04-04T23:27:32.419Z,58.63
2019-04-04T23:30:02.423Z,59.30
2019-04-04T23:32:32.425Z,57.60
2019-04-04T23:35:04.470Z,58.77
2019-04-04T23:37:32.931Z,58.50
2019-04-04T23:40:01.381Z,57.30
2019-04-04T23:42:32.571Z,56.13
2019-04-04T23:45:06.251Z,57.03
2019-04-04T23:47:42.722Z,56.33
2019-04-04T23:50:06.535Z,58.97
2019-04-04T23:52:35.600Z,59.23
2019-04-04T23:55:05.958Z,59.90
2019-04-04T23:57:34.412Z,62.20
